Time;durP1;ratioP1;P1;durP2;ratioP2;P2;SDS_P1;SDS_P2;PMS_P1;PMS_P2;Temp;Humidity;BMP_temperature;BMP_pressure;BME280_temperature;BME280_humidity;BME280_pressure;Samples;Min_cycle;Max_cycle;Signal;HPM_P1;HPM_P2
2022/11/28 00:01:04;;;;;;;21.83;19.80;;;6.80;99.90;;;;;;5061458;28;20834;-71
2022/11/28 00:03:32;;;;;;;21.63;19.87;;;6.80;99.90;;;;;;5051823;28;20952;-68
2022/11/28 00:06:03;;;;;;;21.67;19.80;;;6.90;99.90;;;;;;5055685;28;21019;-71
2022/11/28 00:08:30;;;;;;;23.37;21.10;;;6.90;99.90;;;;;;5058743;28;20463;-69
2022/11/28 00:10:56;;;;;;;22.23;20.53;;;6.90;99.90;;;;;;5059947;28;21265;-70
2022/11/28 00:13:23;;;;;;;22.33;20.40;;;6.80;99.90;;;;;;5062109;28;20463;-71
2022/11/28 00:15:56;;;;;;;21.20;19.50;;;6.90;99.90;;;;;;5057047;28;20471;-70
2022/11/28 00:18:26;;;;;;;22.77;21.03;;;6.90;99.90;;;;;;5056993;28;20501;-70
2022/11/28 00:20:58;;;;;;;23.10;21.03;;;6.90;99.90;;;;;;5057570;28;20984;-70
2022/11/28 00:23:25;;;;;;;23.33;21.13;;;6.90;99.90;;;;;;5063280;28;20460;-70
2022/11/28 00:25:59;;;;;;;23.20;20.90;;;6.90;99.90;;;;;;5058997;28;20460;-69
2022/11/28 00:28:26;;;;;;;21.50;19.37;;;6.90;99.90;;;;;;5060163;28;20483;-70
2022/11/28 00:30:53;;;;;;;21.53;19.83;;;6.90;99.90;;;;;;5059485;28;20459;-70
2022/11/28 00:33:20;;;;;;;22.60;20.47;;;6.90;99.90;;;;;;5052355;28;20463;-70
2022/11/28 00:35:48;;;;;;;21.80;19.87;;;6.90;99.90;;;;;;5060460;28;20463;-70
2022/11/28 00:38:15;;;;;;;22.80;20.37;;;6.90;99.90;;;;;;5058190;28;20472;-69
2022/11/28 00:40:42;;;;;;;21.40;19.70;;;6.90;99.90;;;;;;5059458;28;20455;-71
2022/11/28 00:43:10;;;;;;;21.70;19.80;;;6.90;99.90;;;;;;5061439;28;20825;-70
2022/11/28 00:45:37;;;;;;;19.13;17.73;;;6.90;99.90;;;;;;5057341;28;20475;-72
2022/11/28 00:48:04;;;;;;;25.67;19.60;;;7.00;99.90;;;;;;5056042;28;20901;-71
2022/11/28 00:50:31;;;;;;;22.27;18.90;;;6.90;99.90;;;;;;5055855;28;20957;-70
2022/11/28 00:53:00;;;;;;;20.97;19.53;;;7.00;99.90;;;;;;5060103;28;20475;-70
2022/11/28 00:55:27;;;;;;;22.07;19.70;;;7.00;99.90;;;;;;5059248;28;20463;-70
2022/11/28 00:57:54;;;;;;;21.67;19.93;;;7.00;99.90;;;;;;5055881;28;21006;-69
2022/11/28 01:00:22;;;;;;;20.60;19.10;;;7.00;99.90;;;;;;5063904;28;20520;-71
2022/11/28 01:02:49;;;;;;;21.20;19.50;;;7.00;99.90;;;;;;5055566;28;20456;-69
2022/11/28 01:05:16;;;;;;;21.23;19.43;;;7.00;99.90;;;;;;5059231;28;20479;-69
2022/11/28 01:07:43;;;;;;;21.30;19.60;;;7.00;99.90;;;;;;5053548;28;21220;-71
2022/11/28 01:10:12;;;;;;;21.50;19.60;;;7.00;99.90;;;;;;5059253;28;20454;-69
2022/11/28 01:12:39;;;;;;;21.50;19.77;;;7.00;99.90;;;;;;5054484;28;20732;-69
2022/11/28 01:15:09;;;;;;;20.00;18.30;;;7.00;99.90;;;;;;5059579;28;20974;-68
2022/11/28 01:17:37;;;;;;;20.43;18.93;;;7.00;99.90;;;;;;5054825;28;20469;-71
2022/11/28 01:20:06;;;;;;;20.70;18.90;;;7.00;99.90;;;;;;5054714;28;20557;-70
2022/11/28 01:22:33;;;;;;;20.40;18.73;;;7.10;99.90;;;;;;5059827;28;20462;-71
2022/11/28 01:25:00;;;;;;;20.67;19.00;;;7.10;99.90;;;;;;5054869;28;21081;-72
2022/11/28 01:27:28;;;;;;;19.57;17.63;;;7.10;99.90;;;;;;5053193;28;20537;-70
2022/11/28 01:29:55;;;;;;;19.97;18.17;;;7.20;99.90;;;;;;5057414;28;20522;-71
2022/11/28 01:32:22;;;;;;;20.53;18.50;;;7.10;99.90;;;;;;5056598;28;20469;-70
2022/11/28 01:34:48;;;;;;;19.77;17.70;;;7.20;99.90;;;;;;5054965;28;20467;-71
2022/11/28 01:37:15;;;;;;;21.33;19.17;;;7.20;99.90;;;;;;5063165;28;21164;-69
2022/11/28 01:39:42;;;;;;;18.00;16.60;;;7.20;99.90;;;;;;5062344;28;20466;-69
2022/11/28 01:42:16;;;;;;;21.00;19.00;;;7.20;99.90;;;;;;5053722;28;20944;-69
2022/11/28 01:45:10;;;;;;;20.93;19.10;;;7.20;99.90;;;;;;5056277;28;20466;-68
2022/11/28 01:47:37;;;;;;;20.47;18.40;;;7.30;99.90;;;;;;5058322;28;20506;-69
2022/11/28 01:50:06;;;;;;;21.27;18.77;;;7.30;99.90;;;;;;5064747;28;20466;-71
2022/11/28 01:52:35;;;;;;;20.30;18.17;;;7.30;99.90;;;;;;5067628;28;20469;-72
2022/11/28 01:55:03;;;;;;;19.00;17.07;;;7.30;99.90;;;;;;5060786;28;20497;-68
2022/11/28 01:57:30;;;;;;;20.43;18.67;;;7.30;99.90;;;;;;5064146;28;20460;-69
2022/11/28 02:00:02;;;;;;;21.13;19.13;;;7.30;99.90;;;;;;5061754;28;20455;-71
2022/11/28 02:02:35;;;;;;;19.70;18.10;;;7.30;99.90;;;;;;5053641;28;20454;-69
2022/11/28 02:05:03;;;;;;;20.40;18.80;;;7.20;99.90;;;;;;5060674;28;21080;-68
2022/11/28 02:07:30;;;;;;;19.47;17.77;;;7.30;99.90;;;;;;5065282;28;20992;-70
2022/11/28 02:09:58;;;;;;;21.77;19.80;;;7.30;99.90;;;;;;5064779;28;20466;-70
2022/11/28 02:12:35;;;;;;;23.17;21.47;;;7.30;99.90;;;;;;5059938;28;20542;-71
2022/11/28 02:15:14;;;;;;;23.57;21.77;;;7.30;99.90;;;;;;5061134;28;20569;-71
2022/11/28 02:17:55;;;;;;;24.53;22.63;;;7.30;99.90;;;;;;5058785;28;20469;-71
2022/11/28 02:20:51;;;;;;;23.90;21.90;;;7.30;99.90;;;;;;5060898;28;20935;-71
2022/11/28 02:23:27;;;;;;;22.07;20.33;;;7.20;99.90;;;;;;5058553;28;20466;-72
2022/11/28 02:26:35;;;;;;;23.33;21.50;;;7.20;99.90;;;;;;5057954;28;20823;-69
2022/11/28 02:29:51;;;;;;;22.97;20.97;;;7.20;99.90;;;;;;5056137;28;20946;-70
2022/11/28 02:32:29;;;;;;;22.07;20.50;;;7.20;99.90;;;;;;5053236;28;21045;-69
2022/11/28 02:35:01;;;;;;;21.13;19.30;;;7.20;99.90;;;;;;5061639;28;20457;-71
2022/11/28 02:37:34;;;;;;;21.13;19.47;;;7.20;99.90;;;;;;5061017;28;20969;-71
2022/11/28 02:40:10;;;;;;;19.60;18.07;;;7.20;99.90;;;;;;5062328;28;20460;-71
2022/11/28 02:42:47;;;;;;;20.07;18.47;;;7.20;99.90;;;;;;5057358;28;20464;-69
2022/11/28 02:45:19;;;;;;;21.60;19.70;;;7.20;99.90;;;;;;5062982;28;20476;-71
2022/11/28 02:47:50;;;;;;;20.47;18.87;;;7.20;99.90;;;;;;5062761;28;20505;-69
2022/11/28 02:50:22;;;;;;;21.63;20.17;;;7.20;99.90;;;;;;5062535;28;20537;-70
2022/11/28 02:52:52;;;;;;;21.77;20.00;;;7.20;99.90;;;;;;5061298;28;20540;-70
2022/11/28 02:55:20;;;;;;;22.03;20.10;;;7.20;99.90;;;;;;5060065;28;20457;-71
2022/11/28 02:57:50;;;;;;;20.43;18.90;;;7.20;99.90;;;;;;5061362;28;20464;-69
2022/11/28 03:00:28;;;;;;;21.47;19.87;;;7.20;99.90;;;;;;5058278;28;20462;-71
2022/11/28 03:03:14;;;;;;;20.20;18.80;;;7.20;99.90;;;;;;5059779;28;20516;-70
2022/11/28 03:05:46;;;;;;;21.93;19.60;;;7.20;99.90;;;;;;5058475;28;21024;-69
2022/11/28 03:08:27;;;;;;;21.23;19.53;;;7.20;99.90;;;;;;5057631;28;20499;-69
2022/11/28 03:11:01;;;;;;;21.30;18.70;;;7.20;99.90;;;;;;5064460;28;20467;-71
2022/11/28 03:13:37;;;;;;;19.73;18.13;;;7.30;99.90;;;;;;5061900;28;20468;-70
2022/11/28 03:16:13;;;;;;;19.37;17.87;;;7.20;99.90;;;;;;5062833;28;20464;-70
2022/11/28 03:18:51;;;;;;;19.63;17.70;;;7.20;99.90;;;;;;5055600;28;20564;-70
2022/11/28 03:21:26;;;;;;;20.37;18.70;;;7.20;99.90;;;;;;5056710;28;20470;-71
2022/11/28 03:23:58;;;;;;;18.90;17.40;;;7.20;99.90;;;;;;5060128;28;20516;-71
2022/11/28 03:26:30;;;;;;;19.50;17.73;;;7.20;99.90;;;;;;5052923;28;20460;-71
2022/11/28 03:29:02;;;;;;;18.70;17.30;;;7.20;99.90;;;;;;5053029;28;20486;-69
2022/11/28 03:31:34;;;;;;;19.20;17.87;;;7.20;99.90;;;;;;5058424;28;20467;-70
2022/11/28 03:34:06;;;;;;;19.60;18.10;;;7.20;99.90;;;;;;5062567;28;20468;-72
2022/11/28 03:36:38;;;;;;;19.50;17.80;;;7.20;99.90;;;;;;5060173;28;20469;-70
2022/11/28 03:39:09;;;;;;;18.70;17.37;;;7.20;99.90;;;;;;5055575;28;20977;-70
2022/11/28 03:41:38;;;;;;;19.80;18.23;;;7.30;99.90;;;;;;5059628;28;20462;-71
2022/11/28 03:44:08;;;;;;;18.27;16.67;;;7.30;99.90;;;;;;5052016;28;20531;-71
2022/11/28 03:46:40;;;;;;;21.17;18.90;;;7.30;99.90;;;;;;5054645;28;20854;-70
2022/11/28 03:49:10;;;;;;;19.33;17.40;;;7.30;99.90;;;;;;5054947;28;20491;-69
2022/11/28 03:51:40;;;;;;;19.13;17.63;;;7.30;99.90;;;;;;5048027;28;20466;-71
2022/11/28 03:54:11;;;;;;;17.60;16.40;;;7.30;99.90;;;;;;5060387;28;20841;-72
2022/11/28 03:56:45;;;;;;;19.43;17.83;;;7.30;99.90;;;;;;5060335;28;20463;-72
2022/11/28 03:59:16;;;;;;;19.10;17.40;;;7.30;99.90;;;;;;5059492;28;20465;-72
2022/11/28 04:01:52;;;;;;;17.57;16.27;;;7.30;99.90;;;;;;5057750;28;20470;-72
2022/11/28 04:04:27;;;;;;;19.30;17.60;;;7.30;99.90;;;;;;5055484;28;20985;-71
2022/11/28 04:06:58;;;;;;;18.30;16.90;;;7.30;99.90;;;;;;5064783;28;20466;-71
2022/11/28 04:09:37;;;;;;;18.73;17.43;;;7.30;99.90;;;;;;5063973;28;20513;-70
2022/11/28 04:12:10;;;;;;;18.97;17.67;;;7.30;99.90;;;;;;5061119;28;20462;-72
2022/11/28 04:14:43;;;;;;;17.87;16.60;;;7.30;99.90;;;;;;5059518;28;20538;-71
2022/11/28 04:17:15;;;;;;;20.63;18.77;;;7.30;99.90;;;;;;5054603;28;20464;-70
2022/11/28 04:19:49;;;;;;;19.83;18.00;;;7.40;99.90;;;;;;5059163;28;20462;-71
2022/11/28 04:22:21;;;;;;;18.37;17.03;;;7.40;99.90;;;;;;5052714;28;20949;-70
2022/11/28 04:24:52;;;;;;;19.97;18.43;;;7.40;99.90;;;;;;5064190;28;20769;-69
2022/11/28 04:27:23;;;;;;;19.70;18.30;;;7.40;99.90;;;;;;5060141;28;20806;-71
2022/11/28 04:29:59;;;;;;;20.40;19.00;;;7.40;99.90;;;;;;5062552;28;20549;-71
2022/11/28 04:32:28;;;;;;;20.27;18.40;;;7.40;99.90;;;;;;5058200;28;20464;-71
2022/11/28 04:35:01;;;;;;;20.83;19.43;;;7.40;99.90;;;;;;5056830;28;20462;-70
2022/11/28 04:37:30;;;;;;;21.20;19.60;;;7.40;99.90;;;;;;5057121;28;20474;-71
2022/11/28 04:39:57;;;;;;;20.90;19.30;;;7.40;99.90;;;;;;5057069;28;20804;-70
2022/11/28 04:42:30;;;;;;;20.53;18.83;;;7.30;99.90;;;;;;5064902;28;20477;-71
2022/11/28 04:45:01;;;;;;;21.60;20.10;;;7.30;99.90;;;;;;5063629;28;20462;-69
2022/11/28 04:47:28;;;;;;;20.80;19.00;;;7.30;99.90;;;;;;5060132;28;20478;-71
2022/11/28 04:49:56;;;;;;;23.27;21.47;;;7.30;99.90;;;;;;5058407;28;20541;-69
2022/11/28 04:52:31;;;;;;;21.40;19.60;;;7.30;99.90;;;;;;5060157;28;20474;-70
2022/11/28 04:55:04;;;;;;;20.83;19.43;;;7.20;99.90;;;;;;5062031;28;20467;-70
2022/11/28 04:57:35;;;;;;;22.00;20.40;;;7.30;99.90;;;;;;5061130;28;20494;-71
2022/11/28 05:00:06;;;;;;;22.90;20.83;;;7.20;99.90;;;;;;5062546;28;20948;-71
2022/11/28 05:02:34;;;;;;;20.60;19.20;;;7.20;99.90;;;;;;5055785;28;20547;-71
2022/11/28 05:05:08;;;;;;;22.07;20.50;;;7.20;99.90;;;;;;5059250;28;20494;-71
2022/11/28 05:07:35;;;;;;;20.73;19.30;;;7.20;99.90;;;;;;5052133;28;20626;-70
2022/11/28 05:10:02;;;;;;;22.53;20.63;;;7.20;99.90;;;;;;5059738;28;20463;-71
2022/11/28 05:12:28;;;;;;;21.17;19.67;;;7.20;99.90;;;;;;5060952;28;20875;-71
2022/11/28 05:14:56;;;;;;;20.07;18.67;;;7.20;99.90;;;;;;5057490;28;20553;-70
2022/11/28 05:17:23;;;;;;;20.63;19.17;;;7.20;99.90;;;;;;5057482;28;20532;-70
2022/11/28 05:19:50;;;;;;;21.47;19.67;;;7.20;99.90;;;;;;5059287;28;20474;-70
2022/11/28 05:22:19;;;;;;;21.90;20.00;;;7.10;99.90;;;;;;5050194;28;20466;-69
2022/11/28 05:24:45;;;;;;;21.43;19.57;;;7.10;99.90;;;;;;5058536;28;20482;-70
2022/11/28 05:27:12;;;;;;;20.40;18.90;;;7.20;99.90;;;;;;5061267;28;20881;-71
2022/11/28 05:29:42;;;;;;;21.70;19.90;;;7.20;99.90;;;;;;5054869;28;20918;-70
2022/11/28 05:32:10;;;;;;;22.40;20.17;;;7.10;99.90;;;;;;5055581;28;20881;-69
2022/11/28 05:34:37;;;;;;;22.17;20.37;;;7.10;99.90;;;;;;5058246;28;20507;-71
2022/11/28 05:37:04;;;;;;;20.77;19.37;;;7.10;99.90;;;;;;5055991;28;20470;-70
2022/11/28 05:39:33;;;;;;;22.77;20.97;;;7.10;99.90;;;;;;5061298;28;20471;-70
2022/11/28 05:42:00;;;;;;;22.10;20.30;;;7.00;99.90;;;;;;5055401;28;20464;-70
2022/11/28 05:44:27;;;;;;;22.33;20.00;;;7.00;99.90;;;;;;5057852;28;20470;-72
2022/11/28 05:46:54;;;;;;;21.93;20.07;;;7.00;99.90;;;;;;5055130;28;21012;-71
2022/11/28 05:49:21;;;;;;;21.47;18.60;;;7.00;99.90;;;;;;5061141;28;20502;-71
2022/11/28 05:51:48;;;;;;;21.90;19.60;;;7.00;99.90;;;;;;5059154;28;20476;-72
2022/11/28 05:54:15;;;;;;;20.93;18.97;;;7.00;99.90;;;;;;5055154;28;20459;-71
2022/11/28 05:56:44;;;;;;;22.43;20.33;;;7.00;99.90;;;;;;5054776;28;20857;-72
2022/11/28 05:59:12;;;;;;;21.87;19.90;;;7.00;99.90;;;;;;5060725;28;20464;-70
2022/11/28 06:01:39;;;;;;;22.47;20.20;;;7.00;99.90;;;;;;5057607;28;20459;-72
2022/11/28 06:04:06;;;;;;;21.57;19.73;;;7.00;99.90;;;;;;5056846;28;20463;-72
2022/11/28 06:06:34;;;;;;;21.27;19.57;;;6.90;99.90;;;;;;5054034;28;20463;-72
2022/11/28 06:09:02;;;;;;;20.83;19.13;;;6.90;99.90;;;;;;5056559;28;20498;-72
2022/11/28 06:11:30;;;;;;;20.77;19.03;;;6.90;99.90;;;;;;5060027;28;20489;-73
2022/11/28 06:13:58;;;;;;;23.03;20.90;;;6.90;99.90;;;;;;5052140;28;20952;-70
2022/11/28 06:16:28;;;;;;;22.47;20.03;;;6.90;99.90;;;;;;5048945;28;20490;-71
2022/11/28 06:18:55;;;;;;;20.87;19.37;;;6.90;99.90;;;;;;5052392;28;20510;-70
2022/11/28 06:21:22;;;;;;;22.50;20.43;;;7.00;99.90;;;;;;5055332;28;20452;-70
2022/11/28 06:23:49;;;;;;;20.50;19.10;;;6.90;99.90;;;;;;5057661;28;20471;-69
2022/11/28 06:26:18;;;;;;;24.17;19.23;;;6.90;99.90;;;;;;5058591;28;20475;-70
2022/11/28 06:28:45;;;;;;;21.30;19.47;;;7.00;99.90;;;;;;5061173;28;20509;-71
2022/11/28 06:31:15;;;;;;;22.13;20.07;;;6.90;99.90;;;;;;5066177;28;20965;-71
2022/11/28 06:33:42;;;;;;;22.27;20.07;;;6.90;99.90;;;;;;5059585;28;20478;-70
2022/11/28 06:36:10;;;;;;;21.73;19.90;;;7.00;99.90;;;;;;5059605;28;21390;-71
2022/11/28 06:38:38;;;;;;;21.20;19.40;;;7.00;99.90;;;;;;5057486;28;20474;-69
2022/11/28 06:41:07;;;;;;;21.57;19.30;;;7.00;99.90;;;;;;5058562;28;20466;-70
2022/11/28 06:43:34;;;;;;;23.73;21.73;;;7.00;99.90;;;;;;5065021;28;20478;-72
2022/11/28 06:46:01;;;;;;;25.23;21.23;;;7.00;99.90;;;;;;5060429;28;20519;-70
2022/11/28 06:48:31;;;;;;;28.63;20.07;;;7.00;99.90;;;;;;5062239;28;20487;-71
2022/11/28 06:51:04;;;;;;;23.73;21.57;;;7.00;99.90;;;;;;5059618;28;21068;-70
2022/11/28 06:53:31;;;;;;;23.60;21.43;;;7.00;99.90;;;;;;5064968;28;20469;-69
2022/11/28 06:55:57;;;;;;;27.77;21.53;;;7.00;99.90;;;;;;5055534;28;20457;-71
2022/11/28 06:58:24;;;;;;;25.40;21.43;;;7.10;99.90;;;;;;5061979;28;20494;-71
2022/11/28 07:00:51;;;;;;;22.33;20.33;;;7.10;99.90;;;;;;5062566;28;20466;-72
2022/11/28 07:03:18;;;;;;;22.53;20.50;;;7.10;99.90;;;;;;5060775;28;20562;-69
2022/11/28 07:05:46;;;;;;;23.60;20.97;;;7.10;99.90;;;;;;5050338;28;20606;-70
2022/11/28 07:08:14;;;;;;;23.43;21.23;;;7.10;99.90;;;;;;5037981;28;20807;-70
2022/11/28 07:10:40;;;;;;;22.77;20.43;;;7.10;99.90;;;;;;5047337;28;20471;-69
2022/11/28 07:13:08;;;;;;;23.20;21.23;;;7.10;99.90;;;;;;5032883;28;20462;-71
2022/11/28 07:15:35;;;;;;;22.80;20.90;;;7.10;99.90;;;;;;5037452;28;20465;-70
2022/11/28 07:18:02;;;;;;;24.80;20.93;;;7.10;99.90;;;;;;5040485;28;20962;-71
2022/11/28 07:20:29;;;;;;;28.23;22.00;;;7.10;99.90;;;;;;5036859;28;20464;-69
2022/11/28 07:22:57;;;;;;;25.23;22.00;;;7.20;99.90;;;;;;5042802;28;20461;-71
2022/11/28 07:25:24;;;;;;;23.83;21.80;;;7.20;99.90;;;;;;5037733;28;20498;-71
2022/11/28 07:27:51;;;;;;;23.60;21.47;;;7.30;99.90;;;;;;5040209;28;20464;-70
2022/11/28 07:30:19;;;;;;;24.60;21.70;;;7.30;99.90;;;;;;5040575;28;20489;-71
2022/11/28 07:32:46;;;;;;;22.97;20.80;;;7.30;99.90;;;;;;5033153;28;20919;-70
2022/11/28 07:35:13;;;;;;;23.50;21.23;;;7.30;99.90;;;;;;5041039;28;20480;-71
2022/11/28 07:37:41;;;;;;;23.27;21.10;;;7.30;99.90;;;;;;5043403;28;20482;-69
2022/11/28 07:40:12;;;;;;;23.33;21.13;;;7.20;99.90;;;;;;5037020;28;20456;-71
2022/11/28 07:42:38;;;;;;;23.23;21.13;;;7.20;99.90;;;;;;5036854;28;20460;-69
2022/11/28 07:45:06;;;;;;;23.83;21.63;;;7.30;99.90;;;;;;5038084;28;20957;-71
2022/11/28 07:47:35;;;;;;;23.23;20.83;;;7.30;99.90;;;;;;5041031;28;20480;-70
2022/11/28 07:50:02;;;;;;;24.60;22.40;;;7.20;99.90;;;;;;5042459;28;20499;-68
2022/11/28 07:52:29;;;;;;;25.43;21.33;;;7.30;99.90;;;;;;5038751;28;20469;-72
2022/11/28 07:54:57;;;;;;;31.50;21.90;;;7.20;99.90;;;;;;5036701;28;20525;-71
2022/11/28 07:57:26;;;;;;;23.10;20.90;;;7.30;99.90;;;;;;5040825;28;20941;-70
2022/11/28 07:59:53;;;;;;;23.60;21.70;;;7.30;99.90;;;;;;5043845;28;20475;-68
2022/11/28 08:02:19;;;;;;;24.33;22.10;;;7.30;99.90;;;;;;5039261;28;20463;-69
2022/11/28 08:04:47;;;;;;;24.77;21.70;;;7.30;99.90;;;;;;5043087;28;20489;-69
2022/11/28 08:07:14;;;;;;;26.23;23.43;;;7.30;99.90;;;;;;5053743;28;20468;-71
2022/11/28 08:09:42;;;;;;;25.80;23.30;;;7.30;99.90;;;;;;5059369;28;20483;-70
2022/11/28 08:12:09;;;;;;;28.03;23.73;;;7.40;99.90;;;;;;5054129;28;20462;-69
2022/11/28 08:14:38;;;;;;;26.63;24.20;;;7.40;99.90;;;;;;5061625;28;20878;-68
2022/11/28 08:17:05;;;;;;;27.40;24.80;;;7.40;99.90;;;;;;5067738;28;20796;-70
2022/11/28 08:19:32;;;;;;;29.73;25.40;;;7.50;99.90;;;;;;5058644;28;20965;-70
2022/11/28 08:21:59;;;;;;;27.03;24.30;;;7.40;99.90;;;;;;5058730;28;20491;-70
2022/11/28 08:24:26;;;;;;;26.03;23.80;;;7.40;99.90;;;;;;5057615;28;20464;-71
2022/11/28 08:26:53;;;;;;;27.43;24.93;;;7.40;99.90;;;;;;5062476;28;20459;-70
2022/11/28 08:29:20;;;;;;;26.73;24.20;;;7.40;99.90;;;;;;5060722;28;20501;-68
2022/11/28 08:31:48;;;;;;;27.47;24.77;;;7.40;99.90;;;;;;5056804;28;20493;-69
2022/11/28 08:34:15;;;;;;;27.30;24.77;;;7.40;99.90;;;;;;5054866;28;20485;-70
2022/11/28 08:36:43;;;;;;;28.37;25.50;;;7.40;99.90;;;;;;5058896;28;20466;-70
2022/11/28 08:39:11;;;;;;;28.90;26.17;;;7.30;99.90;;;;;;5061969;28;20936;-71
2022/11/28 08:41:38;;;;;;;27.57;24.97;;;7.40;99.90;;;;;;5053264;28;20553;-70
2022/11/28 08:44:05;;;;;;;29.53;26.70;;;7.40;99.90;;;;;;5059822;28;20465;-68
2022/11/28 08:46:32;;;;;;;29.13;26.30;;;7.50;99.90;;;;;;5056496;28;20481;-69
2022/11/28 08:49:01;;;;;;;37.93;25.50;;;7.50;99.90;;;;;;5053910;28;20923;-69
2022/11/28 08:51:29;;;;;;;28.23;25.13;;;7.50;99.90;;;;;;5048221;28;20554;-70
2022/11/28 08:53:56;;;;;;;27.17;23.60;;;7.60;99.90;;;;;;5053472;28;20533;-69
2022/11/28 08:56:23;;;;;;;27.43;24.70;;;7.60;99.90;;;;;;5060770;28;20473;-70
2022/11/28 08:58:49;;;;;;;26.90;24.20;;;7.50;99.90;;;;;;5055031;28;20462;-70
2022/11/28 09:01:18;;;;;;;28.20;25.60;;;7.50;99.90;;;;;;5051173;28;20467;-70
2022/11/28 09:03:46;;;;;;;25.83;23.73;;;7.40;99.90;;;;;;5059747;28;20498;-69
2022/11/28 09:06:14;;;;;;;27.30;24.50;;;7.50;99.90;;;;;;5060742;28;20824;-70
2022/11/28 09:08:42;;;;;;;26.70;24.47;;;7.40;99.90;;;;;;5062355;28;20458;-70
2022/11/28 09:11:10;;;;;;;27.17;24.63;;;7.40;99.90;;;;;;5060134;28;20560;-70
2022/11/28 09:13:38;;;;;;;26.77;24.03;;;7.40;99.90;;;;;;5055582;28;20478;-69
2022/11/28 09:16:06;;;;;;;26.70;24.30;;;7.50;99.90;;;;;;5055087;28;20468;-69
2022/11/28 09:18:33;;;;;;;28.40;25.73;;;7.50;99.90;;;;;;5058841;28;20475;-69
2022/11/28 09:21:01;;;;;;;26.97;24.47;;;7.50;99.90;;;;;;5059067;28;20978;-70
2022/11/28 09:23:29;;;;;;;25.27;23.23;;;7.40;99.90;;;;;;5061379;28;20561;-70
2022/11/28 09:25:57;;;;;;;26.97;24.10;;;7.50;99.90;;;;;;5054496;28;20474;-71
2022/11/28 09:28:27;;;;;;;30.57;25.53;;;7.50;99.90;;;;;;5057252;28;20470;-71
2022/11/28 09:31:00;;;;;;;28.27;25.13;;;7.60;99.90;;;;;;5045221;28;20542;-71
2022/11/28 09:33:27;;;;;;;27.60;24.77;;;7.70;99.90;;;;;;5051617;28;20549;-71
2022/11/28 09:35:54;;;;;;;26.80;24.47;;;7.70;99.90;;;;;;5053496;28;20458;-71
2022/11/28 09:38:22;;;;;;;30.83;24.50;;;7.80;99.90;;;;;;5062221;28;20446;-71
2022/11/28 09:40:51;;;;;;;25.40;23.10;;;7.80;99.90;;;;;;5057847;28;20677;-70
2022/11/28 09:43:23;;;;;;;26.27;24.00;;;7.80;99.90;;;;;;5057814;28;20889;-71
2022/11/28 09:45:52;;;;;;;26.93;24.37;;;7.80;99.90;;;;;;5056321;28;20992;-71
2022/11/28 09:48:29;;;;;;;26.83;24.27;;;7.90;99.90;;;;;;5057480;28;20459;-71
2022/11/28 09:51:01;;;;;;;27.27;24.83;;;8.00;99.90;;;;;;5061640;28;20529;-70
2022/11/28 09:53:34;;;;;;;26.87;24.57;;;8.00;99.90;;;;;;5058846;28;21076;-69
2022/11/28 09:56:09;;;;;;;26.93;24.30;;;8.10;99.90;;;;;;5058876;28;20474;-71
2022/11/28 09:58:43;;;;;;;25.97;23.63;;;8.20;99.90;;;;;;5057060;28;21044;-70
2022/11/28 10:01:16;;;;;;;29.73;25.50;;;8.30;99.90;;;;;;5057051;28;20474;-71
2022/11/28 10:03:53;;;;;;;26.77;24.37;;;8.30;99.90;;;;;;5055516;28;20468;-71
2022/11/28 10:06:25;;;;;;;26.10;23.80;;;8.40;99.90;;;;;;5062269;28;21846;-70
2022/11/28 10:09:07;;;;;;;26.33;24.13;;;8.60;99.90;;;;;;5064681;28;20964;-70
2022/11/28 10:11:49;;;;;;;25.97;23.70;;;8.70;99.90;;;;;;5065770;28;21583;-71
2022/11/28 10:14:32;;;;;;;25.13;23.13;;;8.70;99.90;;;;;;5062334;28;20471;-70
2022/11/28 10:17:11;;;;;;;27.87;25.00;;;8.70;99.90;;;;;;5062017;28;20520;-70
2022/11/28 10:19:42;;;;;;;26.77;24.37;;;8.70;99.90;;;;;;5058380;28;20484;-70
2022/11/28 10:22:15;;;;;;;27.17;24.77;;;8.80;99.90;;;;;;5060713;28;20824;-70
2022/11/28 10:24:47;;;;;;;26.40;24.20;;;8.70;99.90;;;;;;5061322;28;20482;-70
2022/11/28 10:27:17;;;;;;;28.37;25.77;;;8.70;99.90;;;;;;5061241;28;21397;-70
2022/11/28 10:29:49;;;;;;;27.03;24.57;;;8.80;99.90;;;;;;5061452;28;20478;-70
2022/11/28 10:32:19;;;;;;;25.90;23.90;;;8.80;99.90;;;;;;5060070;28;20593;-71
2022/11/28 10:34:53;;;;;;;24.40;22.37;;;8.70;99.90;;;;;;5059989;28;20455;-69
2022/11/28 10:37:25;;;;;;;27.13;24.83;;;8.80;99.90;;;;;;5062678;28;20458;-70
2022/11/28 10:39:52;;;;;;;28.37;25.50;;;8.80;99.90;;;;;;5060225;28;21076;-70
2022/11/28 10:42:26;;;;;;;28.07;25.40;;;8.80;99.90;;;;;;5060483;28;20844;-70
2022/11/28 10:45:03;;;;;;;29.23;26.17;;;8.80;99.90;;;;;;5067309;28;20492;-70
2022/11/28 10:48:02;;;;;;;33.30;29.73;;;8.80;99.90;;;;;;5061739;28;20829;-69
2022/11/28 10:50:36;;;;;;;30.40;27.47;;;8.80;99.90;;;;;;5063974;28;21037;-70
2022/11/28 10:53:12;;;;;;;31.33;28.50;;;8.70;99.90;;;;;;5061464;28;20462;-70
2022/11/28 10:55:46;;;;;;;29.10;26.20;;;8.70;99.90;;;;;;5060232;28;20462;-70
2022/11/28 10:58:21;;;;;;;29.80;26.70;;;8.70;99.90;;;;;;5060586;28;20469;-70
2022/11/28 11:00:49;;;;;;;28.27;25.13;;;8.70;99.90;;;;;;5060822;28;20465;-69
2022/11/28 11:03:19;;;;;;;32.73;25.73;;;8.70;99.90;;;;;;5064986;28;20987;-69
2022/11/28 11:05:45;;;;;;;27.90;25.60;;;8.70;99.90;;;;;;5045071;28;20513;-71
2022/11/28 11:08:18;;;;;;;29.80;26.77;;;8.90;99.90;;;;;;5042701;28;20505;-70
2022/11/28 11:10:49;;;;;;;29.87;26.70;;;8.80;99.90;;;;;;5042110;28;20951;-69
2022/11/28 11:13:21;;;;;;;29.90;26.97;;;8.80;99.90;;;;;;5042510;28;20524;-70
2022/11/28 11:15:51;;;;;;;33.70;27.37;;;8.80;99.90;;;;;;5036933;28;20559;-71
2022/11/28 11:18:22;;;;;;;29.27;26.40;;;8.90;99.90;;;;;;5046019;28;20647;-71
2022/11/28 11:20:49;;;;;;;27.93;25.30;;;8.80;99.90;;;;;;5047843;28;20477;-70
2022/11/28 11:23:18;;;;;;;34.63;25.43;;;8.80;99.90;;;;;;5048277;28;20468;-71
2022/11/28 11:25:52;;;;;;;28.63;24.47;;;8.90;99.90;;;;;;5044582;28;20463;-69
2022/11/28 11:28:36;;;;;;;28.67;24.57;;;9.00;99.90;;;;;;5047090;28;20984;-70
2022/11/28 11:31:05;;;;;;;30.90;25.97;;;9.00;99.90;;;;;;5049496;28;20497;-70
2022/11/28 11:33:34;;;;;;;27.80;24.97;;;9.00;99.90;;;;;;5045701;28;20468;-70
2022/11/28 11:36:03;;;;;;;29.57;26.37;;;8.90;99.90;;;;;;5044888;28;20464;-70
2022/11/28 11:38:33;;;;;;;30.23;27.23;;;8.80;99.90;;;;;;5044246;28;20547;-70
2022/11/28 11:41:19;;;;;;;29.73;26.37;;;8.80;99.90;;;;;;5036244;28;20478;-70
2022/11/28 11:43:47;;;;;;;31.60;26.60;;;8.80;99.90;;;;;;5036835;28;20462;-70
2022/11/28 11:46:16;;;;;;;31.80;27.83;;;8.80;99.90;;;;;;5040216;28;20981;-71
2022/11/28 11:48:45;;;;;;;34.43;28.43;;;8.80;99.90;;;;;;5040840;28;20838;-69
2022/11/28 11:51:22;;;;;;;30.83;26.17;;;8.90;99.90;;;;;;5036850;28;21000;-70
2022/11/28 11:54:01;;;;;;;30.80;26.00;;;8.90;99.90;;;;;;5046052;28;20468;-69
2022/11/28 11:56:31;;;;;;;28.20;25.60;;;8.90;99.90;;;;;;5045746;28;20512;-71
2022/11/28 11:59:04;;;;;;;28.57;25.93;;;8.90;99.90;;;;;;5037416;28;20980;-68
2022/11/28 12:01:33;;;;;;;28.43;25.10;;;8.90;99.90;;;;;;5041801;28;20506;-71
2022/11/28 12:04:03;;;;;;;29.97;26.87;;;8.90;99.90;;;;;;5040224;28;20470;-69
2022/11/28 12:06:36;;;;;;;28.60;25.87;;;9.00;99.90;;;;;;5060537;28;20823;-70
2022/11/28 12:09:12;;;;;;;29.33;26.87;;;9.00;99.90;;;;;;5061120;28;20468;-69
2022/11/28 12:11:44;;;;;;;28.47;25.73;;;9.10;99.90;;;;;;5058714;28;20491;-70
2022/11/28 12:14:27;;;;;;;30.57;27.60;;;9.10;99.90;;;;;;5064441;28;20455;-70
2022/11/28 12:17:06;;;;;;;34.07;28.10;;;9.20;99.90;;;;;;5062278;28;20471;-70
2022/11/28 12:19:45;;;;;;;31.70;29.00;;;9.20;99.90;;;;;;5062540;28;20467;-70
2022/11/28 12:22:18;;;;;;;33.70;30.07;;;9.20;99.90;;;;;;5060075;28;20930;-70
2022/11/28 12:24:55;;;;;;;31.50;28.50;;;9.30;99.90;;;;;;5060119;28;20474;-71
2022/11/28 12:27:32;;;;;;;33.47;30.33;;;9.30;99.90;;;;;;5060461;28;21086;-71
2022/11/28 12:30:21;;;;;;;28.40;26.00;;;9.30;99.90;;;;;;5058829;28;20475;-69
2022/11/28 12:33:00;;;;;;;32.30;29.00;;;9.40;99.90;;;;;;5063098;28;20465;-70
2022/11/28 12:35:37;;;;;;;29.57;26.80;;;9.40;99.90;;;;;;5065579;28;20454;-70
2022/11/28 12:38:21;;;;;;;29.63;27.30;;;9.40;99.90;;;;;;5058184;28;20466;-70
2022/11/28 12:41:01;;;;;;;29.70;27.17;;;9.40;99.90;;;;;;5059081;28;20477;-71
2022/11/28 12:43:42;;;;;;;39.20;35.00;;;9.40;99.90;;;;;;5058598;28;20463;-69
2022/11/28 12:46:17;;;;;;;29.83;27.13;;;9.60;99.90;;;;;;5056984;28;20578;-70
2022/11/28 12:48:59;;;;;;;34.70;25.83;;;9.80;99.90;;;;;;5059887;28;20488;-70
2022/11/28 12:51:35;;;;;;;26.77;24.30;;;9.80;99.90;;;;;;5053955;28;20486;-70
2022/11/28 12:54:22;;;;;;;27.80;25.07;;;9.80;99.90;;;;;;5062057;28;20467;-71